createdAt,value
2022-08-22T00:00:33.119Z,11.87
2022-08-22T00:02:43.290Z,13.63
2022-08-22T00:02:45.720Z,14.68
2022-08-22T00:02:46.944Z,12.61
2022-08-22T00:02:49.988Z,12.43
2022-08-22T00:02:52.600Z,16.09
2022-08-22T00:02:59.714Z,12.60
2022-08-22T00:03:02.739Z,13.18
2022-08-22T00:03:35.323Z,11.81
2022-08-22T00:06:12.109Z,11.82
2022-08-22T00:08:55.564Z,11.77
2022-08-22T00:11:34.899Z,11.74
2022-08-22T00:14:11.544Z,11.71
2022-08-22T00:16:45.226Z,11.70
2022-08-22T00:19:23.061Z,11.73
2022-08-22T00:21:59.833Z,11.70
2022-08-22T00:24:34.829Z,11.66
2022-08-22T00:27:11.702Z,11.65
2022-08-22T00:29:45.404Z,11.62
2022-08-22T00:32:20.513Z,11.64
2022-08-22T00:34:54.921Z,11.65
2022-08-22T00:37:27.288Z,11.64
2022-08-22T00:40:03.387Z,11.71
2022-08-22T00:42:54.658Z,11.69
2022-08-22T00:45:42.567Z,11.68
2022-08-22T00:48:34.992Z,11.64
2022-08-22T00:51:31.818Z,11.63
2022-08-22T00:54:17.949Z,11.65
2022-08-22T00:57:18.482Z,11.67
2022-08-22T01:00:13.113Z,11.70
2022-08-22T01:03:07.363Z,11.71
2022-08-22T01:06:00.332Z,11.71
2022-08-22T01:08:43.498Z,11.71
2022-08-22T01:11:28.473Z,11.69
2022-08-22T01:14:12.479Z,11.69
2022-08-22T01:17:06.427Z,11.73
2022-08-22T01:20:07.565Z,11.77
2022-08-22T01:23:12.236Z,11.79
2022-08-22T01:26:21.150Z,11.80
2022-08-22T01:29:27.798Z,11.89
2022-08-22T01:32:44.642Z,11.93
2022-08-22T01:35:47.736Z,11.80
2022-08-22T01:38:36.297Z,11.74
2022-08-22T01:41:42.357Z,11.67
2022-08-22T01:44:27.452Z,11.65
2022-08-22T01:47:02.575Z,11.61
2022-08-22T01:49:40.732Z,11.56
2022-08-22T01:52:13.882Z,11.61
2022-08-22T01:54:55.958Z,11.68
2022-08-22T01:57:24.904Z,11.80
2022-08-22T01:59:55.717Z,12.00
2022-08-22T02:02:44.703Z,12.06
2022-08-22T02:05:25.033Z,12.18
2022-08-22T02:08:00.406Z,12.28
2022-08-22T02:10:46.377Z,12.27
2022-08-22T02:13:31.498Z,12.31
2022-08-22T02:16:09.824Z,12.31
2022-08-22T02:18:55.289Z,12.29
2022-08-22T02:21:31.992Z,12.27
2022-08-22T02:24:03.587Z,12.27
2022-08-22T02:26:50.004Z,12.23
2022-08-22T02:29:22.090Z,12.32
2022-08-22T02:31:57.193Z,12.34
2022-08-22T02:34:37.929Z,12.26
2022-08-22T02:37:14.027Z,12.28
2022-08-22T02:39:49.526Z,12.26
2022-08-22T02:42:25.868Z,12.24
2022-08-22T02:45:01.782Z,12.17
2022-08-22T02:47:36.504Z,12.09
2022-08-22T02:50:18.675Z,12.03
2022-08-22T02:52:59.630Z,11.94
2022-08-22T02:55:37.289Z,11.90
2022-08-22T02:58:15.560Z,11.78
2022-08-22T03:00:48.568Z,11.71
2022-08-22T03:03:23.811Z,11.67
2022-08-22T03:06:01.706Z,11.68
2022-08-22T03:08:34.417Z,11.57
2022-08-22T03:11:16.702Z,11.58
2022-08-22T03:14:00.353Z,11.55
2022-08-22T03:16:35.002Z,11.49
2022-08-22T03:19:13.232Z,11.41
2022-08-22T03:21:54.521Z,11.43
2022-08-22T03:24:28.773Z,11.38
2022-08-22T03:27:03.447Z,11.45
2022-08-22T03:29:36.755Z,11.49
2022-08-22T03:32:16.581Z,11.38
2022-08-22T03:34:59.193Z,11.31
2022-08-22T03:37:37.691Z,11.27
2022-08-22T03:40:21.959Z,11.34
2022-08-22T03:43:16.231Z,11.27
2022-08-22T03:46:25.463Z,11.19
2022-08-22T03:49:32.286Z,11.17
2022-08-22T03:52:15.356Z,11.14
2022-08-22T03:55:05.791Z,11.10
2022-08-22T03:58:11.954Z,11.03
2022-08-22T04:01:28.479Z,10.94
2022-08-22T04:04:23.624Z,10.91
2022-08-22T04:07:28.356Z,10.90
2022-08-22T04:10:38.815Z,10.81
2022-08-22T04:13:37.427Z,10.75
2022-08-22T04:16:52.846Z,10.70
2022-08-22T04:19:54.099Z,10.74
2022-08-22T04:22:40.685Z,10.74
2022-08-22T04:25:16.319Z,10.79
2022-08-22T04:27:48.493Z,10.72
2022-08-22T04:30:25.180Z,10.71
2022-08-22T04:33:01.498Z,10.72
2022-08-22T04:35:34.146Z,10.75
2022-08-22T04:38:05.767Z,10.75
2022-08-22T04:40:40.179Z,10.70
2022-08-22T04:43:12.850Z,10.69
2022-08-22T04:45:46.709Z,10.71
2022-08-22T04:48:22.397Z,10.64
2022-08-22T04:50:56.255Z,10.59
2022-08-22T04:53:35.859Z,10.54
2022-08-22T04:56:13.724Z,10.53
2022-08-22T04:58:47.770Z,10.54
2022-08-22T05:01:19.093Z,10.57
2022-08-22T05:03:54.745Z,10.60
2022-08-22T05:06:26.460Z,10.57
2022-08-22T05:08:56.886Z,10.67
2022-08-22T05:11:25.499Z,10.67
2022-08-22T05:13:57.896Z,10.66
2022-08-22T05:16:29.892Z,10.73
2022-08-22T05:19:03.146Z,10.75
2022-08-22T05:21:35.039Z,10.87
2022-08-22T05:24:06.276Z,10.88
2022-08-22T05:26:39.674Z,10.93
2022-08-22T05:29:10.533Z,11.00
2022-08-22T05:31:46.760Z,11.06
2022-08-22T05:34:17.532Z,11.16
2022-08-22T05:36:51.284Z,11.27
2022-08-22T05:39:21.669Z,11.38
2022-08-22T05:42:03.483Z,11.64
2022-08-22T05:44:34.159Z,11.90
2022-08-22T05:47:05.306Z,12.08
2022-08-22T05:49:37.310Z,12.18
2022-08-22T05:52:14.289Z,12.35
2022-08-22T05:54:52.863Z,12.55
2022-08-22T05:57:28.869Z,12.71
2022-08-22T06:00:02.981Z,12.85
2022-08-22T06:02:46.542Z,13.00
2022-08-22T06:05:14.416Z,13.24
2022-08-22T06:07:47.522Z,13.37
2022-08-22T06:10:23.702Z,13.56
2022-08-22T06:12:58.169Z,13.65
2022-08-22T06:15:31.483Z,13.88
2022-08-22T06:18:05.220Z,14.17
2022-08-22T06:20:40.826Z,14.39
2022-08-22T06:23:12.505Z,14.50
2022-08-22T06:25:44.457Z,14.59
2022-08-22T06:28:18.676Z,14.68
2022-08-22T06:30:47.466Z,14.73
2022-08-22T06:33:23.215Z,14.86
2022-08-22T06:36:11.104Z,15.09
2022-08-22T06:38:55.018Z,15.29
2022-08-22T06:41:27.681Z,15.45
2022-08-22T06:43:57.326Z,15.60
2022-08-22T06:46:29.114Z,15.71
2022-08-22T06:49:01.241Z,15.86
2022-08-22T06:51:30.992Z,16.04
2022-08-22T06:54:04.274Z,16.12
2022-08-22T06:56:42.416Z,16.33
2022-08-22T06:59:14.654Z,16.52
2022-08-22T07:01:50.497Z,16.78
2022-08-22T07:04:18.630Z,17.05
2022-08-22T07:06:50.896Z,17.27
2022-08-22T07:09:25.230Z,17.47
2022-08-22T07:11:55.202Z,17.66
2022-08-22T07:14:32.934Z,17.80
2022-08-22T07:17:04.361Z,18.12
2022-08-22T07:19:34.571Z,18.35
2022-08-22T07:22:14.584Z,18.57
2022-08-22T07:24:49.207Z,18.78
2022-08-22T07:27:31.977Z,19.00
2022-08-22T07:30:10.209Z,19.01
2022-08-22T07:32:48.128Z,19.07
2022-08-22T07:35:18.787Z,19.15
2022-08-22T07:37:57.666Z,19.10
2022-08-22T07:40:33.713Z,19.00
2022-08-22T07:43:10.477Z,18.81
2022-08-22T07:45:44.406Z,18.89
2022-08-22T07:48:26.217Z,18.89
2022-08-22T07:51:03.993Z,18.77
2022-08-22T07:53:40.330Z,18.80
2022-08-22T07:56:13.963Z,18.92
2022-08-22T07:58:49.435Z,19.00
2022-08-22T08:01:21.836Z,19.17
2022-08-22T08:03:55.230Z,19.18
2022-08-22T08:06:25.418Z,19.24
2022-08-22T08:08:54.480Z,19.24
2022-08-22T08:11:30.424Z,19.38
2022-08-22T08:14:04.537Z,19.56
2022-08-22T08:16:41.990Z,19.70
2022-08-22T08:19:12.030Z,19.86
2022-08-22T08:21:42.850Z,19.82
2022-08-22T08:24:24.734Z,19.89
2022-08-22T08:27:14.172Z,20.02
2022-08-22T08:29:46.705Z,20.07
2022-08-22T08:32:14.956Z,19.93
2022-08-22T08:34:45.072Z,20.01
2022-08-22T08:37:20.320Z,20.10
2022-08-22T08:39:51.914Z,20.12
2022-08-22T08:43:14.592Z,20.12
2022-08-22T08:46:03.617Z,20.23
2022-08-22T08:49:06.387Z,20.54
2022-08-22T08:51:53.379Z,20.63
2022-08-22T08:54:43.394Z,20.68
2022-08-22T08:57:20.103Z,20.74
2022-08-22T09:00:03.993Z,20.85
2022-08-22T09:02:50.224Z,20.91
2022-08-22T09:05:55.598Z,20.98
2022-08-22T09:08:55.538Z,21.20
2022-08-22T09:11:48.153Z,21.44
2022-08-22T09:14:27.802Z,21.30
2022-08-22T09:17:28.875Z,21.03
2022-08-22T09:23:20.108Z,21.08
2022-08-22T09:25:53.227Z,21.16
2022-08-22T09:28:29.230Z,21.29
2022-08-22T09:34:08.215Z,21.54
2022-08-22T09:36:48.092Z,21.51
2022-08-22T09:39:22.543Z,21.78
2022-08-22T09:40:15.634Z,21.45
2022-08-22T09:40:16.478Z,20.90
2022-08-22T09:42:00.707Z,21.87
2022-08-22T09:44:41.172Z,21.88
2022-08-22T09:47:24.931Z,22.07
2022-08-22T09:50:04.872Z,22.19
2022-08-22T09:52:57.895Z,22.32
2022-08-22T09:55:40.753Z,22.31
2022-08-22T09:58:20.573Z,22.58
2022-08-22T10:00:56.976Z,22.80
2022-08-22T10:03:52.261Z,22.68
2022-08-22T10:06:28.044Z,22.71
2022-08-22T10:09:04.408Z,22.90
2022-08-22T10:11:42.201Z,23.00
2022-08-22T10:14:22.242Z,22.87
2022-08-22T10:17:00.687Z,22.86
2022-08-22T10:19:33.786Z,22.75
2022-08-22T10:22:30.328Z,23.14
2022-08-22T10:25:08.623Z,22.95
2022-08-22T10:27:56.201Z,23.22
2022-08-22T10:30:27.730Z,23.37
2022-08-22T10:33:03.355Z,23.62
2022-08-22T10:35:38.951Z,24.00
2022-08-22T10:38:14.297Z,23.91
2022-08-22T10:40:49.682Z,24.24
2022-08-22T10:43:28.909Z,24.55
2022-08-22T10:46:04.014Z,24.44
2022-08-22T10:48:47.772Z,24.91
2022-08-22T10:51:25.411Z,25.03
2022-08-22T10:54:19.925Z,25.02
2022-08-22T10:56:55.513Z,25.42
2022-08-22T10:59:43.759Z,24.86
2022-08-22T11:02:30.430Z,24.50
2022-08-22T11:05:17.642Z,24.76
2022-08-22T11:07:54.322Z,25.50
2022-08-22T11:10:35.037Z,25.20
2022-08-22T11:13:15.447Z,24.61
2022-08-22T11:15:59.454Z,24.55
2022-08-22T11:18:37.830Z,24.30
2022-08-22T11:21:10.505Z,24.38
2022-08-22T11:23:46.112Z,24.32
2022-08-22T11:26:35.881Z,24.33
2022-08-22T11:29:24.972Z,24.66
2022-08-22T11:32:06.014Z,25.21
2022-08-22T11:34:52.960Z,25.70
2022-08-22T11:37:42.675Z,25.62
2022-08-22T11:40:24.228Z,24.45
2022-08-22T11:43:03.198Z,23.67
2022-08-22T11:45:40.392Z,23.90
2022-08-22T11:48:19.851Z,24.33
2022-08-22T11:50:51.626Z,24.77
2022-08-22T11:53:27.617Z,24.97
2022-08-22T11:56:05.466Z,24.51
2022-08-22T11:58:46.251Z,24.32
2022-08-22T12:01:18.504Z,24.43
2022-08-22T12:04:01.168Z,24.23
2022-08-22T12:06:56.242Z,24.55
2022-08-22T12:09:38.165Z,24.28
2022-08-22T12:12:24.040Z,24.02
2022-08-22T12:14:59.066Z,23.97
2022-08-22T12:17:55.365Z,24.24
2022-08-22T12:21:00.420Z,24.35
2022-08-22T12:23:49.414Z,24.12
2022-08-22T12:26:31.804Z,24.16
2022-08-22T12:29:16.869Z,24.21
2022-08-22T12:32:27.689Z,24.31
2022-08-22T12:35:14.005Z,24.22
2022-08-22T12:37:52.300Z,24.08
2022-08-22T12:40:29.192Z,23.81
2022-08-22T12:43:32.239Z,23.57
2022-08-22T12:46:16.659Z,23.68
2022-08-22T12:49:07.977Z,23.67
2022-08-22T12:51:45.209Z,23.83
2022-08-22T12:54:47.427Z,23.93
2022-08-22T12:57:24.679Z,23.88
2022-08-22T12:59:58.195Z,23.80
2022-08-22T13:02:29.788Z,23.81
2022-08-22T13:05:01.618Z,23.76
2022-08-22T13:07:31.907Z,23.67
2022-08-22T13:10:04.359Z,23.66
2022-08-22T13:12:44.085Z,23.57
2022-08-22T13:15:31.154Z,23.58
2022-08-22T13:18:25.254Z,23.67
2022-08-22T13:20:54.912Z,23.63
2022-08-22T13:23:29.023Z,23.51
2022-08-22T13:26:07.726Z,23.42
2022-08-22T13:28:42.986Z,23.44
2022-08-22T13:31:21.891Z,23.82
2022-08-22T13:33:51.405Z,24.01
2022-08-22T13:36:23.182Z,24.02
2022-08-22T13:38:58.246Z,23.78
2022-08-22T13:41:31.103Z,23.64
2022-08-22T13:44:18.205Z,23.56
2022-08-22T13:47:12.824Z,23.35
2022-08-22T13:49:43.370Z,23.27
2022-08-22T13:52:29.034Z,23.35
2022-08-22T13:55:02.338Z,23.40
2022-08-22T13:57:37.040Z,23.25
2022-08-22T14:00:11.162Z,23.20
2022-08-22T14:02:49.246Z,23.11
2022-08-22T14:05:22.463Z,23.17
2022-08-22T14:08:05.761Z,23.12
2022-08-22T14:10:55.146Z,23.19
2022-08-22T14:13:39.145Z,23.26
2022-08-22T14:16:10.854Z,23.27
2022-08-22T14:18:45.450Z,23.18
2022-08-22T14:21:26.350Z,23.17
2022-08-22T14:24:00.459Z,23.19
2022-08-22T14:26:37.287Z,23.26
2022-08-22T14:29:18.653Z,23.12
2022-08-22T14:31:59.134Z,23.12
2022-08-22T14:34:28.900Z,23.18
2022-08-22T14:37:03.308Z,23.10
2022-08-22T14:39:42.760Z,23.11
2022-08-22T14:42:17.785Z,23.00
2022-08-22T14:45:06.481Z,22.90
2022-08-22T14:47:55.571Z,22.85
2022-08-22T14:50:43.374Z,22.95
2022-08-22T14:53:13.528Z,22.90
2022-08-22T14:55:43.575Z,22.85
2022-08-22T14:58:18.496Z,22.91
2022-08-22T15:00:57.148Z,22.80
2022-08-22T15:03:28.822Z,22.74
2022-08-22T15:05:59.014Z,22.69
2022-08-22T15:08:35.137Z,22.63
2022-08-22T15:11:10.872Z,22.59
2022-08-22T15:13:41.203Z,22.60
2022-08-22T15:16:18.140Z,22.57
2022-08-22T15:18:51.574Z,22.62
2022-08-22T15:21:24.525Z,22.66
2022-08-22T15:23:55.566Z,22.66
2022-08-22T15:26:32.090Z,22.60
2022-08-22T15:29:08.210Z,22.46
2022-08-22T15:31:37.919Z,22.50
2022-08-22T15:34:18.063Z,22.45
2022-08-22T15:37:13.084Z,22.32
2022-08-22T15:40:02.937Z,22.38
2022-08-22T15:42:40.137Z,22.42
2022-08-22T15:45:23.951Z,22.44
2022-08-22T15:47:54.581Z,22.49
2022-08-22T15:50:33.343Z,22.48
2022-08-22T15:53:15.855Z,22.58
2022-08-22T15:56:28.250Z,22.58
2022-08-22T15:59:24.948Z,22.65
2022-08-22T16:01:56.936Z,22.64
2022-08-22T16:04:56.293Z,22.70
2022-08-22T16:07:36.010Z,22.69
2022-08-22T16:10:10.975Z,22.63
2022-08-22T16:12:43.860Z,22.58
2022-08-22T16:15:45.046Z,22.64
2022-08-22T16:18:46.084Z,22.70
2022-08-22T16:21:17.346Z,22.78
2022-08-22T16:24:22.554Z,22.96
2022-08-22T16:26:51.012Z,22.84
2022-08-22T16:29:37.690Z,22.71
2022-08-22T16:32:12.374Z,22.54
2022-08-22T16:34:43.818Z,22.70
2022-08-22T16:37:45.110Z,22.84
2022-08-22T16:40:20.951Z,22.71
2022-08-22T16:42:54.025Z,22.80
2022-08-22T16:45:32.771Z,22.55
2022-08-22T16:48:16.323Z,22.62
2022-08-22T16:50:44.087Z,22.71
2022-08-22T16:53:50.907Z,23.26
2022-08-22T16:56:25.448Z,24.38
2022-08-22T16:59:24.066Z,25.42
2022-08-22T17:02:08.330Z,26.18
2022-08-22T17:04:46.940Z,27.25
2022-08-22T17:07:28.666Z,27.94
2022-08-22T17:10:12.754Z,27.14
2022-08-22T17:12:54.649Z,25.72
2022-08-22T17:15:31.726Z,24.17
2022-08-22T17:18:20.804Z,23.32
2022-08-22T17:21:01.632Z,22.60
2022-08-22T17:23:40.162Z,21.86
2022-08-22T17:26:20.035Z,21.47
2022-08-22T17:28:59.542Z,21.10
2022-08-22T17:31:36.383Z,20.91
2022-08-22T17:34:17.703Z,20.67
2022-08-22T17:37:02.582Z,20.52
2022-08-22T17:39:55.577Z,20.28
2022-08-22T17:42:47.822Z,20.08
2022-08-22T17:45:27.748Z,19.94
2022-08-22T17:48:05.581Z,19.81
2022-08-22T17:50:39.337Z,19.71
2022-08-22T17:53:16.629Z,19.57
2022-08-22T17:55:58.082Z,19.44
2022-08-22T17:58:37.755Z,19.26
2022-08-22T18:01:16.430Z,19.08
2022-08-22T18:03:52.514Z,18.89
2022-08-22T18:06:25.392Z,18.74
2022-08-22T18:09:13.653Z,18.55
2022-08-22T18:11:48.256Z,18.38
2022-08-22T18:14:28.445Z,18.18
2022-08-22T18:17:00.828Z,17.95
2022-08-22T18:19:43.366Z,17.77
2022-08-22T18:22:18.920Z,17.60
2022-08-22T18:24:50.217Z,17.47
2022-08-22T18:27:34.266Z,17.28
2022-08-22T18:30:08.230Z,17.11
2022-08-22T18:32:47.031Z,16.90
2022-08-22T18:35:18.014Z,16.75
2022-08-22T18:37:55.158Z,16.62
2022-08-22T18:40:32.459Z,16.50
2022-08-22T18:43:14.766Z,16.47
2022-08-22T18:46:04.079Z,16.39
2022-08-22T18:49:05.368Z,16.20
2022-08-22T18:51:38.611Z,16.10
2022-08-22T18:54:30.211Z,16.00
2022-08-22T18:57:08.750Z,15.87
2022-08-22T19:00:03.308Z,15.71
2022-08-22T19:03:08.607Z,15.52
2022-08-22T19:06:12.388Z,15.28
2022-08-22T19:09:05.230Z,15.12
2022-08-22T19:11:47.686Z,14.97
2022-08-22T19:14:50.065Z,14.88
2022-08-22T19:17:44.736Z,14.79
2022-08-22T19:20:47.878Z,14.63
2022-08-22T19:23:48.149Z,14.58
2022-08-22T19:26:44.593Z,14.52
2022-08-22T19:29:30.974Z,14.53
2022-08-22T19:32:02.016Z,14.43
2022-08-22T19:34:46.756Z,14.33
2022-08-22T19:37:32.517Z,14.25
2022-08-22T19:40:09.462Z,14.15
2022-08-22T19:42:40.691Z,14.06
2022-08-22T19:45:21.809Z,13.99
2022-08-22T19:48:01.726Z,13.94
2022-08-22T19:50:34.573Z,13.86
2022-08-22T19:53:32.460Z,13.72
2022-08-22T19:56:10.865Z,13.57
2022-08-22T19:58:54.476Z,13.52
2022-08-22T20:01:37.225Z,13.39
2022-08-22T20:04:10.122Z,13.32
2022-08-22T20:06:46.183Z,13.27
2022-08-22T20:09:27.506Z,13.28
2022-08-22T20:12:10.977Z,13.26
2022-08-22T20:14:45.487Z,13.23
2022-08-22T20:17:34.460Z,13.13
2022-08-22T20:20:19.674Z,13.08
2022-08-22T20:22:56.749Z,13.05
2022-08-22T20:25:42.134Z,12.99
2022-08-22T20:28:32.234Z,12.88
2022-08-22T20:31:02.370Z,12.81
2022-08-22T20:33:34.879Z,12.70
2022-08-22T20:36:06.234Z,12.58
2022-08-22T20:38:55.772Z,12.55
2022-08-22T20:41:27.801Z,12.52
2022-08-22T20:44:02.655Z,12.47
2022-08-22T20:46:53.371Z,12.44
2022-08-22T20:49:25.045Z,12.34
2022-08-22T20:51:55.921Z,12.23
2022-08-22T20:54:26.047Z,12.17
2022-08-22T20:56:56.520Z,12.14
2022-08-22T20:59:37.528Z,12.08
2022-08-22T21:02:14.501Z,12.01
2022-08-22T21:04:50.024Z,11.91
2022-08-22T21:07:30.588Z,11.97
2022-08-22T21:10:22.547Z,11.88
2022-08-22T21:13:13.072Z,11.83
2022-08-22T21:15:44.193Z,11.80
2022-08-22T21:18:13.647Z,11.77
2022-08-22T21:20:41.735Z,11.66
2022-08-22T21:23:14.058Z,11.59
2022-08-22T21:25:52.358Z,11.60
2022-08-22T21:28:31.084Z,11.54
2022-08-22T21:31:07.964Z,11.52
2022-08-22T21:33:35.889Z,11.50
2022-08-22T21:36:04.022Z,11.47
2022-08-22T21:38:31.969Z,11.38
2022-08-22T21:41:05.338Z,11.38
2022-08-22T21:43:36.830Z,11.40
2022-08-22T21:46:06.772Z,11.38
2022-08-22T21:48:38.773Z,11.31
2022-08-22T21:51:40.986Z,11.27
2022-08-22T21:54:39.615Z,11.26
2022-08-22T21:57:36.013Z,11.19
2022-08-22T22:00:11.243Z,11.13
2022-08-22T22:02:42.261Z,11.07
2022-08-22T22:05:14.615Z,11.09
2022-08-22T22:07:44.601Z,11.07
2022-08-22T22:10:15.616Z,11.06
2022-08-22T22:12:45.635Z,10.99
2022-08-22T22:15:16.113Z,10.97
2022-08-22T22:17:45.417Z,10.91
2022-08-22T22:20:15.243Z,10.94
2022-08-22T22:22:46.472Z,10.92
2022-08-22T22:25:40.233Z,10.86
2022-08-22T22:28:05.816Z,10.80
2022-08-22T22:30:33.749Z,10.78
2022-08-22T22:33:02.968Z,10.71
2022-08-22T22:35:31.479Z,10.68
2022-08-22T22:37:59.566Z,10.66
2022-08-22T22:40:27.470Z,10.63
2022-08-22T22:42:55.337Z,10.67
2022-08-22T22:45:23.224Z,10.64
2022-08-22T22:47:51.113Z,10.61
2022-08-22T22:50:20.613Z,10.52
2022-08-22T22:52:48.366Z,10.49
2022-08-22T22:55:23.980Z,10.44
2022-08-22T22:57:58.933Z,10.38
2022-08-22T23:06:48.731Z,10.12
2022-08-22T23:09:16.637Z,10.15
2022-08-22T23:11:46.032Z,10.09
2022-08-22T23:14:13.890Z,10.09
2022-08-22T23:16:42.038Z,10.08
2022-08-22T23:19:10.607Z,10.08
2022-08-22T23:21:38.986Z,10.07
2022-08-22T23:24:09.072Z,10.02
2022-08-22T23:26:37.122Z,9.96
2022-08-22T23:29:06.022Z,9.86
2022-08-22T23:31:36.060Z,9.84
2022-08-22T23:34:06.787Z,9.74
2022-08-22T23:36:35.186Z,9.64
2022-08-22T23:39:09.719Z,9.59
2022-08-22T23:41:39.525Z,9.56
2022-08-22T23:44:09.302Z,9.59
2022-08-22T23:46:42.481Z,9.56
2022-08-22T23:49:10.354Z,9.49
2022-08-22T23:51:38.513Z,9.43
2022-08-22T23:54:06.618Z,9.40
2022-08-22T23:56:36.883Z,9.37
2022-08-22T23:59:09.707Z,9.37
